createdAt,value
2023-04-02T00:01:03.089Z,96716.78
2023-04-02T00:03:44.949Z,96713.03
2023-04-02T00:06:45.176Z,96711.41
2023-04-02T00:09:14.874Z,96709.38
2023-04-02T00:11:45.514Z,96713.94
2023-04-02T00:14:24.382Z,96714.69
2023-04-02T00:16:53.141Z,96712.72
2023-04-02T00:19:32.188Z,96713.34
2023-04-02T00:22:00.440Z,96705.41
2023-04-02T00:24:27.343Z,96701.47
2023-04-02T00:26:54.442Z,96701.00
2023-04-02T00:29:21.851Z,96705.00
2023-04-02T00:31:54.461Z,96699.56
2023-04-02T00:34:23.272Z,96704.16
2023-04-02T00:36:51.091Z,96704.34
2023-04-02T00:39:25.801Z,96698.19
2023-04-02T00:42:04.783Z,96699.88
2023-04-02T00:44:42.710Z,96704.72
2023-04-02T00:47:26.945Z,96710.78
2023-04-02T00:50:07.984Z,96706.72
2023-04-02T00:52:36.298Z,96711.44
2023-04-02T00:55:10.410Z,96705.09
2023-04-02T00:57:37.549Z,96705.59
2023-04-02T01:00:23.029Z,96700.31
2023-04-02T01:03:17.771Z,96695.94
2023-04-02T01:05:51.632Z,96689.75
2023-04-02T01:08:31.278Z,96691.25
2023-04-02T01:11:36.432Z,96689.31
2023-04-02T01:14:29.284Z,96694.44
2023-04-02T01:17:08.715Z,96693.31
2023-04-02T01:19:58.554Z,96695.63
2023-04-02T01:22:51.710Z,96702.28
2023-04-02T01:25:38.577Z,96697.06
2023-04-02T01:28:29.505Z,96703.28
2023-04-02T01:30:58.332Z,96702.97
2023-04-02T01:33:33.137Z,96695.25
2023-04-02T01:36:17.487Z,96694.00
2023-04-02T01:39:08.539Z,96702.22
2023-04-02T01:41:44.206Z,96707.84
2023-04-02T01:44:22.289Z,96703.09
2023-04-02T01:46:52.594Z,96703.53
2023-04-02T01:49:22.119Z,96699.25
2023-04-02T01:51:56.732Z,96701.44
2023-04-02T01:54:26.008Z,96703.41
2023-04-02T01:56:52.824Z,96706.78
2023-04-02T01:59:22.274Z,96707.75
2023-04-02T02:02:07.865Z,96710.72
2023-04-02T02:04:37.401Z,96725.31
2023-04-02T02:07:14.361Z,96713.75
2023-04-02T02:09:43.559Z,96714.91
2023-04-02T02:12:14.975Z,96716.00
2023-04-02T02:14:49.946Z,96718.22
2023-04-02T02:17:24.086Z,96733.09
2023-04-02T02:19:56.885Z,96728.16
2023-04-02T02:22:31.271Z,96731.06
2023-04-02T02:25:01.996Z,96732.72
2023-04-02T02:27:28.797Z,96723.53
2023-04-02T02:30:11.548Z,96731.19
2023-04-02T02:32:46.710Z,96727.63
2023-04-02T02:35:32.001Z,96735.88
2023-04-02T02:38:42.615Z,96724.84
2023-04-02T02:41:41.585Z,96723.59
2023-04-02T02:44:09.152Z,96731.19
2023-04-02T02:46:43.429Z,96737.22
2023-04-02T02:49:17.282Z,96734.75
2023-04-02T02:51:50.140Z,96739.44
2023-04-02T02:54:22.944Z,96743.28
2023-04-02T02:56:56.335Z,96749.72
2023-04-02T02:59:24.200Z,96749.72
2023-04-02T03:01:51.877Z,96742.16
2023-04-02T03:04:23.285Z,96745.88
2023-04-02T03:06:54.031Z,96740.78
2023-04-02T03:09:39.290Z,96744.25
2023-04-02T03:12:25.526Z,96747.97
2023-04-02T03:15:17.197Z,96750.16
2023-04-02T03:18:02.226Z,96759.91
2023-04-02T03:20:53.933Z,96752.06
2023-04-02T03:23:38.077Z,96759.91
2023-04-02T03:26:12.579Z,96759.75
2023-04-02T03:28:46.455Z,96756.31
2023-04-02T03:31:36.822Z,96759.06
2023-04-02T03:34:43.301Z,96764.44
2023-04-02T03:37:30.871Z,96768.56
2023-04-02T03:40:15.887Z,96772.69
2023-04-02T03:42:53.502Z,96764.97
2023-04-02T03:45:25.370Z,96778.31
2023-04-02T03:48:00.826Z,96783.94
2023-04-02T03:50:35.881Z,96780.41
2023-04-02T03:53:03.530Z,96781.63
2023-04-02T03:55:36.983Z,96785.63
2023-04-02T03:58:17.030Z,96779.25
2023-04-02T04:01:08.144Z,96785.56
2023-04-02T04:04:03.990Z,96782.84
2023-04-02T04:06:36.187Z,96786.44
2023-04-02T04:09:24.142Z,96788.03
2023-04-02T04:11:56.021Z,96785.84
2023-04-02T04:14:32.247Z,96791.84
2023-04-02T04:17:13.953Z,96802.81
2023-04-02T04:19:46.163Z,96807.72
2023-04-02T04:22:30.505Z,96810.81
2023-04-02T04:25:06.972Z,96807.72
2023-04-02T04:27:52.850Z,96818.56
2023-04-02T04:30:43.770Z,96818.31
2023-04-02T04:33:28.974Z,96820.38
2023-04-02T04:36:03.207Z,96816.44
2023-04-02T04:38:40.808Z,96821.50
2023-04-02T04:41:16.797Z,96821.56
2023-04-02T04:43:56.166Z,96818.38
2023-04-02T04:46:29.296Z,96828.13
2023-04-02T04:49:05.890Z,96828.44
2023-04-02T04:51:46.640Z,96830.63
2023-04-02T04:54:15.138Z,96827.75
2023-04-02T04:56:49.526Z,96829.00
2023-04-02T04:59:29.321Z,96830.13
2023-04-02T05:01:59.900Z,96833.16
2023-04-02T05:04:42.332Z,96832.56
2023-04-02T05:07:21.312Z,96836.19
2023-04-02T05:09:55.838Z,96833.97
2023-04-02T05:12:42.419Z,96836.34
2023-04-02T05:15:12.000Z,96844.44
2023-04-02T05:18:09.581Z,96846.81
2023-04-02T05:20:45.001Z,96847.50
2023-04-02T05:23:42.734Z,96847.84
2023-04-02T05:26:09.776Z,96858.28
2023-04-02T05:28:46.056Z,96857.59
2023-04-02T05:31:20.216Z,96866.53
2023-04-02T05:33:49.442Z,96862.69
2023-04-02T05:36:25.983Z,96865.72
2023-04-02T05:38:57.588Z,96874.81
2023-04-02T05:41:43.860Z,96867.91
2023-04-02T05:44:11.432Z,96868.19
2023-04-02T05:46:50.657Z,96865.16
2023-04-02T05:49:26.450Z,96871.06
2023-04-02T05:51:59.099Z,96869.13
2023-04-02T05:54:32.992Z,96868.00
2023-04-02T05:57:05.952Z,96864.56
2023-04-02T05:59:46.602Z,96881.22
2023-04-02T06:02:39.913Z,96876.22
2023-04-02T06:05:15.125Z,96874.13
2023-04-02T06:08:06.315Z,96863.06
2023-04-02T06:10:37.301Z,96868.25
2023-04-02T06:13:08.468Z,96877.75
2023-04-02T06:15:40.816Z,96880.31
2023-04-02T06:18:27.288Z,96886.19
2023-04-02T06:20:57.252Z,96882.31
2023-04-02T06:23:51.112Z,96887.34
2023-04-02T06:26:39.530Z,96897.22
2023-04-02T06:29:20.517Z,96888.97
2023-04-02T06:31:56.790Z,96899.38
2023-04-02T06:34:26.570Z,96897.00
2023-04-02T06:37:31.588Z,96897.63
2023-04-02T06:40:17.379Z,96897.50
2023-04-02T06:42:45.622Z,96900.72
2023-04-02T06:45:39.933Z,96900.75
2023-04-02T06:48:17.751Z,96907.41
2023-04-02T06:50:49.329Z,96907.91
2023-04-02T06:53:27.866Z,96915.81
2023-04-02T06:56:08.410Z,96911.84
2023-04-02T06:58:35.516Z,96915.44
2023-04-02T07:01:02.402Z,96911.22
2023-04-02T07:03:42.969Z,96915.06
2023-04-02T07:06:19.362Z,96925.00
2023-04-02T07:08:48.367Z,96925.66
2023-04-02T07:11:19.470Z,96926.94
2023-04-02T07:13:49.720Z,96925.38
2023-04-02T07:16:20.683Z,96927.81
2023-04-02T07:18:48.787Z,96932.50
2023-04-02T07:21:16.059Z,96929.91
2023-04-02T07:23:43.087Z,96933.41
2023-04-02T07:26:17.434Z,96928.16
2023-04-02T07:28:44.268Z,96935.75
2023-04-02T07:31:26.332Z,96934.03
2023-04-02T07:33:55.753Z,96941.69
2023-04-02T07:36:23.882Z,96946.81
2023-04-02T07:38:51.178Z,96939.03
2023-04-02T07:41:19.552Z,96955.53
2023-04-02T07:43:46.983Z,96949.59
2023-04-02T07:46:17.469Z,96955.06
2023-04-02T07:48:45.020Z,96952.28
2023-04-02T07:51:17.421Z,96951.63
2023-04-02T07:53:44.157Z,96945.69
2023-04-02T07:56:16.084Z,96951.75
2023-04-02T07:58:42.730Z,96955.16
2023-04-02T08:01:17.292Z,96950.84
2023-04-02T08:03:44.225Z,96955.25
2023-04-02T08:06:12.076Z,96960.00
2023-04-02T08:08:39.077Z,96964.84
2023-04-02T08:11:06.126Z,96959.72
2023-04-02T08:13:32.764Z,96957.56
2023-04-02T08:16:00.678Z,96948.44
2023-04-02T08:18:27.979Z,96954.28
2023-04-02T08:20:54.635Z,96956.63
2023-04-02T08:23:21.690Z,96959.91
2023-04-02T08:25:48.812Z,96955.22
2023-04-02T08:28:15.664Z,96957.00
2023-04-02T08:30:42.453Z,96961.16
2023-04-02T08:33:09.234Z,96958.38
2023-04-02T08:35:36.420Z,96956.09
2023-04-02T08:38:03.369Z,96952.75
2023-04-02T08:40:39.579Z,96958.69
2023-04-02T08:43:24.847Z,96955.06
2023-04-02T08:46:09.969Z,96959.25
2023-04-02T08:48:42.608Z,96951.72
2023-04-02T08:51:19.079Z,96954.34
2023-04-02T08:53:46.488Z,96959.63
2023-04-02T08:56:24.058Z,96960.44
2023-04-02T08:58:56.066Z,96958.53
2023-04-02T09:02:02.135Z,96961.13
2023-04-02T09:04:29.740Z,96956.25
2023-04-02T09:06:57.621Z,96964.50
2023-04-02T09:09:25.430Z,96964.31
2023-04-02T09:12:04.069Z,96968.63
2023-04-02T09:14:44.729Z,96966.97
2023-04-02T09:17:20.850Z,96965.25
2023-04-02T09:19:58.857Z,96966.97
2023-04-02T09:22:27.227Z,96970.59
2023-04-02T09:24:55.802Z,96970.06
2023-04-02T09:27:25.628Z,96973.97
2023-04-02T09:30:29.751Z,96969.41
2023-04-02T09:32:58.437Z,96971.06
2023-04-02T09:35:27.685Z,96976.81
2023-04-02T09:38:16.186Z,96973.38
2023-04-02T09:40:45.684Z,96972.88
2023-04-02T09:43:15.041Z,96972.41
2023-04-02T09:45:43.533Z,96974.72
2023-04-02T09:48:39.468Z,96972.81
2023-04-02T09:51:12.635Z,96979.22
2023-04-02T09:54:13.589Z,96978.63
2023-04-02T09:56:41.308Z,96980.16
2023-04-02T09:59:15.393Z,96979.03
2023-04-02T10:01:49.911Z,96991.56
2023-04-02T10:04:45.967Z,96983.22
2023-04-02T10:07:32.362Z,96987.16
2023-04-02T10:10:18.689Z,96976.28
2023-04-02T10:12:56.991Z,96974.31
2023-04-02T10:15:32.197Z,96967.44
2023-04-02T10:18:11.657Z,96963.25
2023-04-02T10:20:50.603Z,96965.34
2023-04-02T10:23:19.369Z,96970.44
2023-04-02T10:25:57.174Z,96969.25
2023-04-02T10:28:45.500Z,96967.78
2023-04-02T10:31:17.462Z,96968.53
2023-04-02T10:33:50.399Z,96964.75
2023-04-02T10:36:45.090Z,96960.44
2023-04-02T10:39:24.892Z,96959.34
2023-04-02T10:42:06.095Z,96962.47
2023-04-02T10:44:47.246Z,96964.31
2023-04-02T10:47:33.321Z,96964.06
2023-04-02T10:50:25.689Z,96958.03
2023-04-02T10:52:57.901Z,96955.94
2023-04-02T10:55:30.611Z,96956.84
2023-04-02T10:58:03.396Z,96965.34
2023-04-02T11:00:35.333Z,96957.91
2023-04-02T11:03:14.847Z,96964.47
2023-04-02T11:05:53.203Z,96963.72
2023-04-02T11:08:28.063Z,96960.34
2023-04-02T11:11:02.254Z,96957.81
2023-04-02T11:13:36.099Z,96953.13
2023-04-02T11:16:03.820Z,96955.22
2023-04-02T11:18:35.892Z,96966.59
2023-04-02T11:21:06.945Z,96963.66
2023-04-02T11:23:56.995Z,96964.47
2023-04-02T11:26:35.275Z,96968.00
2023-04-02T11:29:08.053Z,96965.72
2023-04-02T11:31:35.141Z,96969.03
2023-04-02T11:34:01.741Z,96966.56
2023-04-02T11:36:50.093Z,96971.34
2023-04-02T11:39:49.576Z,96969.31
2023-04-02T11:42:18.948Z,96967.75
2023-04-02T11:44:45.792Z,96967.22
2023-04-02T11:47:18.809Z,96969.84
2023-04-02T11:49:55.050Z,96960.03
2023-04-02T11:52:27.487Z,96963.97
2023-04-02T11:55:00.316Z,96954.94
2023-04-02T11:58:02.228Z,96959.16
2023-04-02T12:00:54.447Z,96958.28
2023-04-02T12:03:33.808Z,96964.25
2023-04-02T12:06:18.906Z,96957.50
2023-04-02T12:09:26.720Z,96956.53
2023-04-02T12:11:59.627Z,96947.66
2023-04-02T12:14:46.773Z,96961.25
2023-04-02T12:17:37.142Z,96960.19
2023-04-02T12:20:21.480Z,96957.34
2023-04-02T12:22:51.215Z,96961.97
2023-04-02T12:25:20.996Z,96962.84
2023-04-02T12:27:48.936Z,96963.50
2023-04-02T12:30:23.294Z,96962.91
2023-04-02T12:32:50.681Z,96958.63
2023-04-02T12:35:32.625Z,96958.78
2023-04-02T12:37:59.232Z,96961.72
2023-04-02T12:40:27.093Z,96965.69
2023-04-02T12:42:53.724Z,96969.72
2023-04-02T12:45:26.558Z,96965.63
2023-04-02T12:47:54.954Z,96963.09
2023-04-02T12:50:23.092Z,96956.06
2023-04-02T12:52:53.238Z,96962.81
2023-04-02T12:55:25.967Z,96957.72
2023-04-02T12:58:00.615Z,96965.28
2023-04-02T13:00:30.421Z,96957.41
2023-04-02T13:03:06.131Z,96955.59
2023-04-02T13:05:40.304Z,96963.03
2023-04-02T13:08:15.186Z,96962.34
2023-04-02T13:10:44.151Z,96967.59
2023-04-02T13:13:16.464Z,96978.47
2023-04-02T13:15:43.711Z,96975.81
2023-04-02T13:18:13.744Z,96974.56
2023-04-02T13:20:42.770Z,96981.72
2023-04-02T13:23:32.538Z,97000.56
2023-04-02T13:26:08.581Z,96994.00
2023-04-02T13:28:35.775Z,96997.69
2023-04-02T13:31:02.390Z,97018.16
2023-04-02T13:33:29.181Z,97013.66
2023-04-02T13:35:56.083Z,97018.66
2023-04-02T13:38:22.828Z,97023.53
2023-04-02T13:40:49.722Z,97019.81
2023-04-02T13:43:19.799Z,97014.94
2023-04-02T13:45:51.008Z,97013.78
2023-04-02T13:48:18.458Z,97018.06
2023-04-02T13:50:46.693Z,97006.28
2023-04-02T13:53:22.058Z,96999.66
2023-04-02T13:55:49.221Z,97004.91
2023-04-02T13:58:15.872Z,97012.63
2023-04-02T14:00:42.530Z,97014.38
2023-04-02T14:03:21.937Z,96998.78
2023-04-02T14:06:12.915Z,97009.41
2023-04-02T14:09:05.103Z,97007.38
2023-04-02T14:11:34.816Z,97008.25
2023-04-02T14:14:27.097Z,97003.19
2023-04-02T14:16:56.462Z,97002.91
2023-04-02T14:19:38.372Z,97011.81
2023-04-02T14:22:37.273Z,97014.50
2023-04-02T14:25:15.635Z,97013.63
2023-04-02T14:28:01.464Z,97006.97
2023-04-02T14:30:34.456Z,97012.22
2023-04-02T14:33:10.347Z,97008.72
2023-04-02T14:35:52.862Z,97008.44
2023-04-02T14:38:25.497Z,97011.69
2023-04-02T14:41:38.329Z,97013.44
2023-04-02T14:44:07.296Z,97005.25
2023-04-02T14:46:37.858Z,97008.47
2023-04-02T14:49:25.084Z,97016.13
2023-04-02T14:51:54.943Z,97015.91
2023-04-02T14:54:35.898Z,97019.13
2023-04-02T14:57:16.956Z,97018.53
2023-04-02T15:00:24.217Z,97025.53
2023-04-02T15:03:15.077Z,97015.69
2023-04-02T15:05:48.661Z,97027.75
2023-04-02T15:08:36.231Z,97035.00
2023-04-02T15:11:44.086Z,97038.06
2023-04-02T15:14:20.032Z,97045.41
2023-04-02T15:16:46.802Z,97039.53
2023-04-02T15:19:17.023Z,97040.78
2023-04-02T15:22:08.836Z,97045.59
2023-04-02T15:25:17.969Z,97042.44
2023-04-02T15:27:57.092Z,97048.69
2023-04-02T15:30:28.997Z,97049.63
2023-04-02T15:33:27.432Z,97048.13
2023-04-02T15:36:29.617Z,97054.25
2023-04-02T15:39:02.031Z,97052.66
2023-04-02T15:41:36.338Z,97051.72
2023-04-02T15:44:19.140Z,97058.84
2023-04-02T15:47:01.658Z,97058.88
2023-04-02T15:49:42.540Z,97063.78
2023-04-02T15:52:09.225Z,97070.09
2023-04-02T15:54:41.496Z,97068.44
2023-04-02T15:57:45.708Z,97076.72
2023-04-02T16:00:23.023Z,97075.53
2023-04-02T16:03:27.586Z,97075.25
2023-04-02T16:06:19.180Z,97083.53
2023-04-02T16:08:56.965Z,97082.81
2023-04-02T16:11:25.821Z,97092.66
2023-04-02T16:14:01.017Z,97099.03
2023-04-02T16:16:34.077Z,97103.41
2023-04-02T16:19:15.928Z,97107.06
2023-04-02T16:21:50.499Z,97111.97
2023-04-02T16:24:17.262Z,97111.38
2023-04-02T16:26:53.365Z,97118.97
2023-04-02T16:29:25.630Z,97124.31
2023-04-02T16:32:34.376Z,97130.72
2023-04-02T16:35:40.621Z,97130.41
2023-04-02T16:38:02.877Z,97136.88
2023-04-02T16:40:33.626Z,97133.97
2023-04-02T16:43:54.271Z,97151.34
2023-04-02T16:46:46.968Z,97149.44
2023-04-02T16:49:36.221Z,97149.63
2023-04-02T16:52:27.359Z,97155.59
2023-04-02T16:55:12.330Z,97161.59
2023-04-02T16:57:48.982Z,97162.13
2023-04-02T17:00:23.993Z,97168.91
2023-04-02T17:03:21.995Z,97175.19
2023-04-02T17:06:13.200Z,97178.97
2023-04-02T17:08:47.169Z,97190.84
2023-04-02T17:11:25.206Z,97188.59
2023-04-02T17:14:06.209Z,97191.53
2023-04-02T17:16:42.596Z,97194.47
2023-04-02T17:19:14.928Z,97203.69
2023-04-02T17:21:46.229Z,97202.84
2023-04-02T17:24:33.319Z,97207.31
2023-04-02T17:27:06.211Z,97208.47
2023-04-02T17:29:38.216Z,97215.72
2023-04-02T17:32:17.740Z,97214.72
2023-04-02T17:34:44.339Z,97220.50
2023-04-02T17:37:29.354Z,97222.47
2023-04-02T17:39:58.574Z,97230.03
2023-04-02T17:42:56.470Z,97229.38
2023-04-02T17:45:54.236Z,97243.66
2023-04-02T17:48:46.223Z,97249.06
2023-04-02T17:51:21.768Z,97255.34
2023-04-02T17:54:14.869Z,97252.38
2023-04-02T17:57:06.974Z,97265.69
2023-04-02T17:59:36.390Z,97275.94
2023-04-02T18:02:12.101Z,97282.50
2023-04-02T18:04:49.208Z,97276.50
2023-04-02T18:07:30.876Z,97295.44
2023-04-02T18:10:17.778Z,97295.72
2023-04-02T18:13:12.987Z,97303.56
2023-04-02T18:15:45.702Z,97312.56
2023-04-02T18:18:15.404Z,97311.91
2023-04-02T18:21:02.647Z,97310.88
2023-04-02T18:23:44.341Z,97312.69
2023-04-02T18:26:48.032Z,97328.91
2023-04-02T18:29:14.582Z,97339.63
2023-04-02T18:32:25.923Z,97339.72
2023-04-02T18:35:13.178Z,97344.78
2023-04-02T18:37:55.000Z,97348.25
2023-04-02T18:40:43.289Z,97361.47
2023-04-02T18:43:12.854Z,97365.63
2023-04-02T18:45:40.830Z,97359.09
2023-04-02T18:48:26.769Z,97362.91
2023-04-02T18:50:55.037Z,97370.75
2023-04-02T18:53:25.817Z,97378.28
2023-04-02T18:56:04.532Z,97370.84
2023-04-02T18:58:53.472Z,97381.66
2023-04-02T19:01:34.530Z,97386.84
2023-04-02T19:04:06.205Z,97386.03
2023-04-02T19:06:49.519Z,97397.28
2023-04-02T19:09:24.265Z,97411.16
2023-04-02T19:11:53.813Z,97413.41
2023-04-02T19:14:24.253Z,97410.00
2023-04-02T19:16:54.226Z,97416.56
2023-04-02T19:19:27.351Z,97414.63
2023-04-02T19:22:04.174Z,97427.34
2023-04-02T19:24:55.112Z,97422.69
2023-04-02T19:27:32.153Z,97431.84
2023-04-02T19:30:30.336Z,97428.81
2023-04-02T19:33:07.280Z,97442.66
2023-04-02T19:35:53.891Z,97444.06
2023-04-02T19:38:51.706Z,97443.34
2023-04-02T19:41:41.334Z,97444.88
2023-04-02T19:44:11.822Z,97453.50
2023-04-02T19:46:41.168Z,97458.78
2023-04-02T19:49:15.308Z,97454.78
2023-04-02T19:51:41.907Z,97464.91
2023-04-02T19:54:08.997Z,97466.16
2023-04-02T19:56:35.774Z,97465.47
2023-04-02T19:59:07.858Z,97467.72
2023-04-02T20:01:43.465Z,97477.97
2023-04-02T20:04:10.088Z,97466.66
2023-04-02T20:06:37.652Z,97477.41
2023-04-02T20:09:04.552Z,97482.25
2023-04-02T20:11:31.260Z,97477.16
2023-04-02T20:13:57.834Z,97478.53
2023-04-02T20:16:24.629Z,97493.47
2023-04-02T20:18:51.342Z,97496.78
2023-04-02T20:21:17.922Z,97503.56
2023-04-02T20:23:44.959Z,97507.00
2023-04-02T20:26:12.704Z,97512.69
2023-04-02T20:28:39.708Z,97517.22
2023-04-02T20:31:12.195Z,97526.22
2023-04-02T20:33:39.239Z,97525.81
2023-04-02T20:36:09.301Z,97536.31
2023-04-02T20:38:36.975Z,97536.03
2023-04-02T20:41:06.244Z,97537.41
2023-04-02T20:43:33.294Z,97546.28
2023-04-02T20:46:04.426Z,97546.53
2023-04-02T20:48:32.614Z,97551.19
2023-04-02T20:51:01.872Z,97553.78
2023-04-02T20:53:29.315Z,97564.38
2023-04-02T20:56:13.823Z,97559.47
2023-04-02T20:58:41.715Z,97563.59
2023-04-02T21:01:11.842Z,97571.16
2023-04-02T21:03:39.980Z,97589.84
2023-04-02T21:06:13.009Z,97581.84
2023-04-02T21:08:39.764Z,97583.06
2023-04-02T21:11:07.410Z,97588.72
2023-04-02T21:13:38.658Z,97586.25
2023-04-02T21:16:16.499Z,97591.34
2023-04-02T21:18:43.743Z,97598.06
2023-04-02T21:21:14.617Z,97599.38
2023-04-02T21:23:43.739Z,97595.69
2023-04-02T21:26:13.249Z,97597.47
2023-04-02T21:28:39.844Z,97599.63
2023-04-02T21:31:10.626Z,97602.69
2023-04-02T21:33:39.605Z,97604.72
2023-04-02T21:36:17.709Z,97618.84
2023-04-02T21:38:58.916Z,97614.69
2023-04-02T21:41:30.325Z,97617.88
2023-04-02T21:43:58.814Z,97620.94
2023-04-02T21:46:28.065Z,97629.13
2023-04-02T21:48:56.440Z,97626.88
2023-04-02T21:51:25.975Z,97627.38
2023-04-02T21:53:55.999Z,97630.00
2023-04-02T21:56:28.636Z,97628.94
2023-04-02T21:58:56.896Z,97634.88
2023-04-02T22:01:28.032Z,97633.34
2023-04-02T22:03:59.731Z,97635.72
2023-04-02T22:06:28.472Z,97641.22
2023-04-02T22:08:58.248Z,97645.38
2023-04-02T22:11:33.648Z,97650.38
2023-04-02T22:14:00.248Z,97657.59
2023-04-02T22:16:29.338Z,97662.38
2023-04-02T22:18:58.309Z,97659.75
2023-04-02T22:21:25.885Z,97666.66
2023-04-02T22:23:53.168Z,97667.38
2023-04-02T22:26:21.466Z,97676.63
2023-04-02T22:28:48.123Z,97680.19
2023-04-02T22:31:17.537Z,97669.03
2023-04-02T22:33:46.143Z,97678.06
2023-04-02T22:36:16.246Z,97688.75
2023-04-02T22:38:42.938Z,97678.75
2023-04-02T22:41:12.809Z,97679.97
2023-04-02T22:43:44.188Z,97694.47
2023-04-02T22:46:13.253Z,97688.53
2023-04-02T22:48:40.530Z,97681.75
2023-04-02T22:51:09.262Z,97687.56
2023-04-02T22:53:36.681Z,97694.31
2023-04-02T22:56:06.663Z,97693.59
2023-04-02T22:58:34.200Z,97690.50
2023-04-02T23:01:15.007Z,97684.94
2023-04-02T23:03:41.911Z,97685.84
2023-04-02T23:06:11.595Z,97688.69
2023-04-02T23:08:38.981Z,97678.69
2023-04-02T23:11:11.058Z,97685.03
2023-04-02T23:13:39.248Z,97684.88
2023-04-02T23:16:08.570Z,97677.50
2023-04-02T23:18:35.868Z,97689.56
2023-04-02T23:21:03.030Z,97683.06
2023-04-02T23:23:29.743Z,97688.03
2023-04-02T23:26:08.384Z,97687.41
2023-04-02T23:28:36.014Z,97693.38
2023-04-02T23:31:04.288Z,97691.97
2023-04-02T23:33:31.141Z,97701.69
2023-04-02T23:35:58.356Z,97699.72
2023-04-02T23:38:26.418Z,97700.22
2023-04-02T23:40:53.695Z,97706.44
2023-04-02T23:43:20.712Z,97706.03
2023-04-02T23:45:50.736Z,97713.47
2023-04-02T23:48:17.645Z,97705.94
2023-04-02T23:50:45.476Z,97706.47
2023-04-02T23:53:13.138Z,97709.75
2023-04-02T23:55:40.517Z,97707.31
2023-04-02T23:58:07.360Z,97707.44
